Artic, Indiana
Current Conditions -  °F | °C
As of 7:35 AM on Saturday 01 Nov 2014 (Local Time) from KGWB Reporting Station
Overcast Overcast  
Wind Chill: 22°   Ceiling: 2700
Heat Index: 32°   Visibility: 10mi
Dew Point: 23°   Wind: 14mph
Humidity: 69%   Direction: 360°N
Pressure: 30.28"   Gusts: 23mph
Location:  41.4294°N, 84.8751°W
Report Text: KGWB 011135Z AUTO 36012G20KT 10SM OVC027 00/M05 A3028 RMK AO2
Loading
Personal Weather Stations






























Interactive Weather Map
Tropical Storm Tracking
New forecast layout! Learn more

10-Day Weather Forecast

Advertisements
Track Severe Weather on mobile